sensor_id;sensor_type;location;lat;lon;timestamp;P1;durP1;ratioP1;P2;durP2;ratioP2
61483;SDS011;47349;55.640;37.692;2022-08-21T00:01:55;77.30;;;48.85;;
61483;SDS011;47349;55.640;37.692;2022-08-21T00:04:24;76.68;;;48.40;;
61483;SDS011;47349;55.640;37.692;2022-08-21T00:07:05;79.40;;;51.38;;
61483;SDS011;47349;55.640;37.692;2022-08-21T00:09:33;77.55;;;50.70;;
61483;SDS011;47349;55.640;37.692;2022-08-21T00:12:03;77.20;;;49.10;;
61483;SDS011;47349;55.640;37.692;2022-08-21T00:14:35;75.20;;;49.42;;
61483;SDS011;47349;55.640;37.692;2022-08-21T00:17:07;73.50;;;50.15;;
61483;SDS011;47349;55.640;37.692;2022-08-21T00:19:35;76.15;;;49.63;;
61483;SDS011;47349;55.640;37.692;2022-08-21T00:22:04;73.88;;;48.78;;
61483;SDS011;47349;55.640;37.692;2022-08-21T00:24:33;73.72;;;49.95;;
61483;SDS011;47349;55.640;37.692;2022-08-21T00:27:14;77.82;;;49.35;;
61483;SDS011;47349;55.640;37.692;2022-08-21T00:29:42;76.22;;;50.45;;
61483;SDS011;47349;55.640;37.692;2022-08-21T00:32:28;77.68;;;48.38;;
61483;SDS011;47349;55.640;37.692;2022-08-21T00:34:57;73.22;;;48.58;;
61483;SDS011;47349;55.640;37.692;2022-08-21T00:37:47;80.95;;;51.00;;
61483;SDS011;47349;55.640;37.692;2022-08-21T00:41:24;81.38;;;50.15;;
61483;SDS011;47349;55.640;37.692;2022-08-21T00:44:06;75.38;;;48.38;;
61483;SDS011;47349;55.640;37.692;2022-08-21T00:46:48;74.63;;;47.67;;
61483;SDS011;47349;55.640;37.692;2022-08-21T00:49:17;74.82;;;47.95;;
61483;SDS011;47349;55.640;37.692;2022-08-21T00:51:59;73.05;;;47.80;;
61483;SDS011;47349;55.640;37.692;2022-08-21T00:54:29;81.60;;;48.45;;
61483;SDS011;47349;55.640;37.692;2022-08-21T00:57:14;70.07;;;47.38;;
61483;SDS011;47349;55.640;37.692;2022-08-21T01:00:04;72.93;;;47.58;;
61483;SDS011;47349;55.640;37.692;2022-08-21T01:02:50;75.45;;;46.13;;
61483;SDS011;47349;55.640;37.692;2022-08-21T01:05:53;78.28;;;48.88;;
61483;SDS011;47349;55.640;37.692;2022-08-21T01:08:54;78.75;;;46.67;;
61483;SDS011;47349;55.640;37.692;2022-08-21T01:11:23;74.85;;;47.25;;
61483;SDS011;47349;55.640;37.692;2022-08-21T01:13:53;73.13;;;46.92;;
61483;SDS011;47349;55.640;37.692;2022-08-21T01:16:21;74.38;;;47.47;;
61483;SDS011;47349;55.640;37.692;2022-08-21T01:18:49;74.35;;;47.22;;
61483;SDS011;47349;55.640;37.692;2022-08-21T01:21:20;71.22;;;46.08;;
61483;SDS011;47349;55.640;37.692;2022-08-21T01:23:55;80.72;;;46.25;;
61483;SDS011;47349;55.640;37.692;2022-08-21T01:26:29;73.47;;;43.58;;
61483;SDS011;47349;55.640;37.692;2022-08-21T01:31:44;73.88;;;45.03;;
61483;SDS011;47349;55.640;37.692;2022-08-21T01:35:55;66.15;;;43.55;;
61483;SDS011;47349;55.640;37.692;2022-08-21T01:38:44;64.50;;;42.70;;
61483;SDS011;47349;55.640;37.692;2022-08-21T01:41:16;71.45;;;44.55;;
61483;SDS011;47349;55.640;37.692;2022-08-21T01:43:43;67.43;;;42.40;;
61483;SDS011;47349;55.640;37.692;2022-08-21T01:46:16;67.95;;;43.03;;
61483;SDS011;47349;55.640;37.692;2022-08-21T01:48:53;62.13;;;41.45;;
61483;SDS011;47349;55.640;37.692;2022-08-21T01:51:24;71.25;;;43.40;;
61483;SDS011;47349;55.640;37.692;2022-08-21T01:54:05;68.35;;;41.65;;
61483;SDS011;47349;55.640;37.692;2022-08-21T01:56:37;65.32;;;40.95;;
61483;SDS011;47349;55.640;37.692;2022-08-21T01:59:22;68.78;;;40.30;;
61483;SDS011;47349;55.640;37.692;2022-08-21T02:01:50;58.88;;;41.08;;
61483;SDS011;47349;55.640;37.692;2022-08-21T02:04:23;67.93;;;42.47;;
61483;SDS011;47349;55.640;37.692;2022-08-21T02:07:03;69.15;;;43.83;;
61483;SDS011;47349;55.640;37.692;2022-08-21T02:09:37;68.05;;;43.35;;
61483;SDS011;47349;55.640;37.692;2022-08-21T02:12:09;69.38;;;41.00;;
61483;SDS011;47349;55.640;37.692;2022-08-21T02:14:37;70.68;;;41.85;;
61483;SDS011;47349;55.640;37.692;2022-08-21T02:18:05;67.93;;;40.80;;
61483;SDS011;47349;55.640;37.692;2022-08-21T02:20:35;60.15;;;40.55;;
61483;SDS011;47349;55.640;37.692;2022-08-21T02:23:11;62.17;;;41.00;;
61483;SDS011;47349;55.640;37.692;2022-08-21T02:25:41;62.70;;;41.00;;
61483;SDS011;47349;55.640;37.692;2022-08-21T02:28:17;61.55;;;40.20;;
61483;SDS011;47349;55.640;37.692;2022-08-21T02:30:46;59.83;;;38.95;;
61483;SDS011;47349;55.640;37.692;2022-08-21T02:33:14;64.15;;;39.90;;
61483;SDS011;47349;55.640;37.692;2022-08-21T02:35:43;66.38;;;40.70;;
61483;SDS011;47349;55.640;37.692;2022-08-21T02:38:28;60.58;;;39.83;;
61483;SDS011;47349;55.640;37.692;2022-08-21T02:41:01;65.65;;;37.80;;
61483;SDS011;47349;55.640;37.692;2022-08-21T02:43:52;59.75;;;38.83;;
61483;SDS011;47349;55.640;37.692;2022-08-21T02:47:04;65.05;;;39.60;;
61483;SDS011;47349;55.640;37.692;2022-08-21T02:49:34;70.53;;;38.95;;
61483;SDS011;47349;55.640;37.692;2022-08-21T02:52:03;53.83;;;34.85;;
61483;SDS011;47349;55.640;37.692;2022-08-21T02:54:33;65.03;;;37.90;;
61483;SDS011;47349;55.640;37.692;2022-08-21T02:57:03;55.55;;;35.13;;
61483;SDS011;47349;55.640;37.692;2022-08-21T02:59:30;55.95;;;37.65;;
61483;SDS011;47349;55.640;37.692;2022-08-21T03:01:59;55.63;;;37.90;;
61483;SDS011;47349;55.640;37.692;2022-08-21T03:04:28;58.70;;;36.75;;
61483;SDS011;47349;55.640;37.692;2022-08-21T03:07:10;65.47;;;37.55;;
61483;SDS011;47349;55.640;37.692;2022-08-21T03:14:50;59.30;;;40.28;;
61483;SDS011;47349;55.640;37.692;2022-08-21T03:17:21;61.15;;;38.72;;
61483;SDS011;47349;55.640;37.692;2022-08-21T03:20:32;57.42;;;38.20;;
61483;SDS011;47349;55.640;37.692;2022-08-21T03:23:35;62.00;;;39.25;;
61483;SDS011;47349;55.640;37.692;2022-08-21T03:26:04;61.65;;;38.60;;
61483;SDS011;47349;55.640;37.692;2022-08-21T03:28:35;57.80;;;39.63;;
61483;SDS011;47349;55.640;37.692;2022-08-21T03:31:03;54.50;;;39.00;;
61483;SDS011;47349;55.640;37.692;2022-08-21T03:33:36;59.08;;;40.85;;
61483;SDS011;47349;55.640;37.692;2022-08-21T03:36:06;62.85;;;39.65;;
61483;SDS011;47349;55.640;37.692;2022-08-21T03:38:39;62.42;;;40.15;;
61483;SDS011;47349;55.640;37.692;2022-08-21T03:41:10;58.88;;;40.30;;
61483;SDS011;47349;55.640;37.692;2022-08-21T03:48:44;62.42;;;40.63;;
61483;SDS011;47349;55.640;37.692;2022-08-21T03:51:30;69.82;;;43.97;;
61483;SDS011;47349;55.640;37.692;2022-08-21T03:54:13;67.00;;;43.45;;
61483;SDS011;47349;55.640;37.692;2022-08-21T03:56:55;71.03;;;44.33;;
61483;SDS011;47349;55.640;37.692;2022-08-21T03:59:23;72.13;;;45.88;;
61483;SDS011;47349;55.640;37.692;2022-08-21T04:02:01;68.03;;;44.30;;
61483;SDS011;47349;55.640;37.692;2022-08-21T04:04:36;72.72;;;45.13;;
61483;SDS011;47349;55.640;37.692;2022-08-21T04:07:17;70.07;;;45.33;;
61483;SDS011;47349;55.640;37.692;2022-08-21T04:09:47;73.47;;;45.55;;
61483;SDS011;47349;55.640;37.692;2022-08-21T04:12:16;70.63;;;44.72;;
61483;SDS011;47349;55.640;37.692;2022-08-21T04:14:47;75.28;;;46.85;;
61483;SDS011;47349;55.640;37.692;2022-08-21T04:17:29;79.25;;;48.38;;
61483;SDS011;47349;55.640;37.692;2022-08-21T04:19:58;68.20;;;45.55;;
61483;SDS011;47349;55.640;37.692;2022-08-21T04:22:30;75.30;;;47.15;;
61483;SDS011;47349;55.640;37.692;2022-08-21T04:24:58;70.80;;;47.45;;
61483;SDS011;47349;55.640;37.692;2022-08-21T04:27:25;77.28;;;46.20;;
61483;SDS011;47349;55.640;37.692;2022-08-21T04:29:57;69.85;;;44.03;;
61483;SDS011;47349;55.640;37.692;2022-08-21T04:32:38;76.13;;;47.47;;
61483;SDS011;47349;55.640;37.692;2022-08-21T04:35:25;72.10;;;45.92;;
61483;SDS011;47349;55.640;37.692;2022-08-21T04:38:04;79.22;;;49.17;;
61483;SDS011;47349;55.640;37.692;2022-08-21T04:40:47;80.88;;;48.30;;
61483;SDS011;47349;55.640;37.692;2022-08-21T04:43:16;78.82;;;49.67;;
61483;SDS011;47349;55.640;37.692;2022-08-21T04:45:46;77.57;;;51.15;;
61483;SDS011;47349;55.640;37.692;2022-08-21T04:48:18;82.55;;;52.70;;
61483;SDS011;47349;55.640;37.692;2022-08-21T04:53:38;76.68;;;50.28;;
61483;SDS011;47349;55.640;37.692;2022-08-21T04:56:37;77.93;;;52.35;;
61483;SDS011;47349;55.640;37.692;2022-08-21T04:59:13;91.88;;;54.17;;
61483;SDS011;47349;55.640;37.692;2022-08-21T05:02:05;84.60;;;54.42;;
61483;SDS011;47349;55.640;37.692;2022-08-21T05:04:43;84.18;;;53.10;;
61483;SDS011;47349;55.640;37.692;2022-08-21T05:07:20;89.80;;;56.00;;
61483;SDS011;47349;55.640;37.692;2022-08-21T05:10:29;85.25;;;54.40;;
61483;SDS011;47349;55.640;37.692;2022-08-21T05:15:42;76.85;;;53.38;;
61483;SDS011;47349;55.640;37.692;2022-08-21T05:23:48;80.77;;;51.83;;
61483;SDS011;47349;55.640;37.692;2022-08-21T05:26:17;82.97;;;52.20;;
61483;SDS011;47349;55.640;37.692;2022-08-21T05:28:46;84.60;;;53.25;;
61483;SDS011;47349;55.640;37.692;2022-08-21T05:31:14;85.93;;;53.08;;
61483;SDS011;47349;55.640;37.692;2022-08-21T05:33:42;81.65;;;52.88;;
61483;SDS011;47349;55.640;37.692;2022-08-21T05:36:11;80.97;;;51.47;;
61483;SDS011;47349;55.640;37.692;2022-08-21T05:38:52;79.68;;;52.53;;
61483;SDS011;47349;55.640;37.692;2022-08-21T05:41:36;83.93;;;53.58;;
61483;SDS011;47349;55.640;37.692;2022-08-21T05:44:06;75.78;;;49.78;;
61483;SDS011;47349;55.640;37.692;2022-08-21T05:46:37;78.32;;;53.95;;
61483;SDS011;47349;55.640;37.692;2022-08-21T05:49:05;76.53;;;47.15;;
61483;SDS011;47349;55.640;37.692;2022-08-21T05:51:33;79.88;;;50.15;;
61483;SDS011;47349;55.640;37.692;2022-08-21T05:54:02;81.60;;;50.92;;
61483;SDS011;47349;55.640;37.692;2022-08-21T05:56:31;72.85;;;51.25;;
61483;SDS011;47349;55.640;37.692;2022-08-21T05:59:03;79.70;;;52.00;;
61483;SDS011;47349;55.640;37.692;2022-08-21T06:01:34;77.45;;;48.08;;
61483;SDS011;47349;55.640;37.692;2022-08-21T06:04:03;73.22;;;50.58;;
61483;SDS011;47349;55.640;37.692;2022-08-21T06:09:08;77.13;;;47.33;;
61483;SDS011;47349;55.640;37.692;2022-08-21T06:11:50;67.65;;;47.45;;
61483;SDS011;47349;55.640;37.692;2022-08-21T06:14:18;76.00;;;47.80;;
61483;SDS011;47349;55.640;37.692;2022-08-21T06:16:51;70.68;;;47.72;;
61483;SDS011;47349;55.640;37.692;2022-08-21T06:19:24;71.88;;;46.70;;
61483;SDS011;47349;55.640;37.692;2022-08-21T06:21:53;72.13;;;46.20;;
61483;SDS011;47349;55.640;37.692;2022-08-21T06:24:25;77.70;;;45.22;;
61483;SDS011;47349;55.640;37.692;2022-08-21T06:27:08;69.10;;;41.97;;
61483;SDS011;47349;55.640;37.692;2022-08-21T06:29:36;76.40;;;43.67;;
61483;SDS011;47349;55.640;37.692;2022-08-21T06:32:10;67.68;;;43.20;;
61483;SDS011;47349;55.640;37.692;2022-08-21T06:34:52;62.78;;;42.90;;
61483;SDS011;47349;55.640;37.692;2022-08-21T06:37:29;67.43;;;40.97;;
61483;SDS011;47349;55.640;37.692;2022-08-21T06:39:57;66.75;;;38.70;;
61483;SDS011;47349;55.640;37.692;2022-08-21T06:42:29;61.92;;;42.08;;
61483;SDS011;47349;55.640;37.692;2022-08-21T06:44:57;61.05;;;40.00;;
61483;SDS011;47349;55.640;37.692;2022-08-21T06:47:39;58.78;;;35.67;;
61483;SDS011;47349;55.640;37.692;2022-08-21T06:50:09;57.33;;;39.25;;
61483;SDS011;47349;55.640;37.692;2022-08-21T06:52:42;63.25;;;42.03;;
61483;SDS011;47349;55.640;37.692;2022-08-21T06:55:11;65.25;;;38.72;;
61483;SDS011;47349;55.640;37.692;2022-08-21T06:57:49;68.25;;;41.58;;
61483;SDS011;47349;55.640;37.692;2022-08-21T07:00:21;59.90;;;39.08;;
61483;SDS011;47349;55.640;37.692;2022-08-21T07:03:03;59.97;;;38.90;;
61483;SDS011;47349;55.640;37.692;2022-08-21T07:05:32;58.38;;;38.22;;
61483;SDS011;47349;55.640;37.692;2022-08-21T07:08:02;59.47;;;38.35;;
61483;SDS011;47349;55.640;37.692;2022-08-21T07:10:31;61.17;;;38.63;;
61483;SDS011;47349;55.640;37.692;2022-08-21T07:13:12;60.72;;;36.72;;
61483;SDS011;47349;55.640;37.692;2022-08-21T07:15:42;58.40;;;38.03;;
61483;SDS011;47349;55.640;37.692;2022-08-21T07:18:30;58.88;;;36.17;;
61483;SDS011;47349;55.640;37.692;2022-08-21T07:21:02;56.67;;;35.78;;
61483;SDS011;47349;55.640;37.692;2022-08-21T07:23:50;59.60;;;37.60;;
61483;SDS011;47349;55.640;37.692;2022-08-21T07:26:21;59.25;;;37.15;;
61483;SDS011;47349;55.640;37.692;2022-08-21T08:10:37;50.28;;;33.60;;
61483;SDS011;47349;55.640;37.692;2022-08-21T08:15:53;44.03;;;25.70;;
61483;SDS011;47349;55.640;37.692;2022-08-21T08:18:36;46.10;;;25.15;;
61483;SDS011;47349;55.640;37.692;2022-08-21T08:21:22;43.05;;;26.08;;
61483;SDS011;47349;55.640;37.692;2022-08-21T08:24:05;48.58;;;26.02;;
61483;SDS011;47349;55.640;37.692;2022-08-21T11:56:59;26.90;;;15.70;;
61483;SDS011;47349;55.640;37.692;2022-08-21T12:01:22;24.98;;;14.98;;
61483;SDS011;47349;55.640;37.692;2022-08-21T12:06:34;25.02;;;15.38;;
61483;SDS011;47349;55.640;37.692;2022-08-21T12:10:12;23.30;;;14.48;;
61483;SDS011;47349;55.640;37.692;2022-08-21T12:14:44;23.70;;;13.23;;
61483;SDS011;47349;55.640;37.692;2022-08-21T12:17:41;23.05;;;12.57;;
61483;SDS011;47349;55.640;37.692;2022-08-21T12:22:17;20.67;;;12.65;;
61483;SDS011;47349;55.640;37.692;2022-08-21T12:26:09;21.75;;;11.52;;
61483;SDS011;47349;55.640;37.692;2022-08-21T12:56:56;23.73;;;10.75;;
61483;SDS011;47349;55.640;37.692;2022-08-21T12:59:52;18.50;;;11.02;;
61483;SDS011;47349;55.640;37.692;2022-08-21T13:03:38;15.88;;;8.52;;
61483;SDS011;47349;55.640;37.692;2022-08-21T14:39:42;11.63;;;3.08;;
61483;SDS011;47349;55.640;37.692;2022-08-21T14:42:35;10.40;;;3.17;;
61483;SDS011;47349;55.640;37.692;2022-08-21T14:46:00;10.90;;;2.92;;
61483;SDS011;47349;55.640;37.692;2022-08-21T14:48:57;9.93;;;3.17;;
61483;SDS011;47349;55.640;37.692;2022-08-21T14:51:36;6.05;;;3.03;;
61483;SDS011;47349;55.640;37.692;2022-08-21T14:54:43;7.85;;;2.60;;
61483;SDS011;47349;55.640;37.692;2022-08-21T14:57:59;9.65;;;2.83;;
61483;SDS011;47349;55.640;37.692;2022-08-21T15:04:46;4.55;;;2.67;;
61483;SDS011;47349;55.640;37.692;2022-08-21T15:09:05;9.27;;;2.75;;
61483;SDS011;47349;55.640;37.692;2022-08-21T15:12:24;7.40;;;2.53;;
61483;SDS011;47349;55.640;37.692;2022-08-21T15:15:41;6.43;;;2.60;;
61483;SDS011;47349;55.640;37.692;2022-08-21T20:19:31;12.48;;;5.85;;
61483;SDS011;47349;55.640;37.692;2022-08-21T20:22:04;12.82;;;6.38;;
61483;SDS011;47349;55.640;37.692;2022-08-21T20:24:47;13.23;;;6.50;;
61483;SDS011;47349;55.640;37.692;2022-08-21T20:27:24;12.90;;;5.90;;
61483;SDS011;47349;55.640;37.692;2022-08-21T20:29:54;15.30;;;6.43;;
61483;SDS011;47349;55.640;37.692;2022-08-21T20:32:25;11.38;;;5.50;;
61483;SDS011;47349;55.640;37.692;2022-08-21T20:34:53;15.25;;;6.00;;
61483;SDS011;47349;55.640;37.692;2022-08-21T20:40:20;12.80;;;6.30;;
61483;SDS011;47349;55.640;37.692;2022-08-21T20:43:11;13.23;;;6.03;;
61483;SDS011;47349;55.640;37.692;2022-08-21T20:46:05;14.43;;;6.32;;
61483;SDS011;47349;55.640;37.692;2022-08-21T20:48:49;11.52;;;5.70;;
61483;SDS011;47349;55.640;37.692;2022-08-21T20:51:37;18.08;;;6.38;;
61483;SDS011;47349;55.640;37.692;2022-08-21T20:57:09;10.98;;;6.10;;
61483;SDS011;47349;55.640;37.692;2022-08-21T21:05:37;15.05;;;7.10;;
61483;SDS011;47349;55.640;37.692;2022-08-21T21:08:46;15.68;;;7.43;;
61483;SDS011;47349;55.640;37.692;2022-08-21T21:11:33;12.75;;;7.00;;
61483;SDS011;47349;55.640;37.692;2022-08-21T21:14:16;9.38;;;6.97;;
61483;SDS011;47349;55.640;37.692;2022-08-21T21:16:57;15.18;;;7.53;;
61483;SDS011;47349;55.640;37.692;2022-08-21T21:19:46;18.42;;;7.97;;
61483;SDS011;47349;55.640;37.692;2022-08-21T21:22:23;17.15;;;7.40;;
61483;SDS011;47349;55.640;37.692;2022-08-21T21:48:20;18.45;;;7.85;;
61483;SDS011;47349;55.640;37.692;2022-08-21T21:51:06;13.00;;;7.00;;
61483;SDS011;47349;55.640;37.692;2022-08-21T21:54:01;15.75;;;7.20;;
61483;SDS011;47349;55.640;37.692;2022-08-21T22:03:10;18.77;;;7.13;;
61483;SDS011;47349;55.640;37.692;2022-08-21T22:11:53;15.18;;;7.03;;
61483;SDS011;47349;55.640;37.692;2022-08-21T22:14:51;13.38;;;7.30;;
61483;SDS011;47349;55.640;37.692;2022-08-21T22:20:26;20.02;;;8.32;;
61483;SDS011;47349;55.640;37.692;2022-08-21T22:23:15;15.60;;;8.35;;
61483;SDS011;47349;55.640;37.692;2022-08-21T22:25:49;18.98;;;8.32;;
61483;SDS011;47349;55.640;37.692;2022-08-21T22:28:38;15.23;;;8.80;;
61483;SDS011;47349;55.640;37.692;2022-08-21T22:31:14;20.92;;;8.70;;
61483;SDS011;47349;55.640;37.692;2022-08-21T22:36:55;18.25;;;9.60;;
61483;SDS011;47349;55.640;37.692;2022-08-21T22:39:30;23.23;;;10.27;;
61483;SDS011;47349;55.640;37.692;2022-08-21T22:42:12;18.23;;;10.57;;
61483;SDS011;47349;55.640;37.692;2022-08-21T22:45:03;18.33;;;10.23;;
61483;SDS011;47349;55.640;37.692;2022-08-21T22:47:43;19.23;;;10.73;;
61483;SDS011;47349;55.640;37.692;2022-08-21T22:50:18;17.30;;;9.88;;
61483;SDS011;47349;55.640;37.692;2022-08-21T22:53:07;18.98;;;10.35;;
61483;SDS011;47349;55.640;37.692;2022-08-21T22:55:41;17.77;;;10.57;;
61483;SDS011;47349;55.640;37.692;2022-08-21T23:03:31;18.75;;;10.60;;
61483;SDS011;47349;55.640;37.692;2022-08-21T23:06:23;16.70;;;10.25;;
61483;SDS011;47349;55.640;37.692;2022-08-21T23:08:59;18.98;;;10.10;;
61483;SDS011;47349;55.640;37.692;2022-08-21T23:11:39;15.32;;;10.38;;
61483;SDS011;47349;55.640;37.692;2022-08-21T23:14:22;19.52;;;11.18;;
61483;SDS011;47349;55.640;37.692;2022-08-21T23:19:50;17.50;;;11.48;;
61483;SDS011;47349;55.640;37.692;2022-08-21T23:22:36;21.60;;;11.23;;
61483;SDS011;47349;55.640;37.692;2022-08-21T23:28:29;20.50;;;11.20;;
61483;SDS011;47349;55.640;37.692;2022-08-21T23:31:58;21.83;;;12.10;;
61483;SDS011;47349;55.640;37.692;2022-08-21T23:40:42;21.20;;;13.38;;
61483;SDS011;47349;55.640;37.692;2022-08-21T23:46:12;23.00;;;14.43;;
61483;SDS011;47349;55.640;37.692;2022-08-21T23:52:08;24.02;;;16.45;;
